sensor_id;sensor_type;location;lat;lon;timestamp;temperature;humidity
23540;DHT22;11947;50.810;4.394;2022-12-11T00:00:24;2.60;99.90
23540;DHT22;11947;50.810;4.394;2022-12-11T00:02:50;2.60;99.90
23540;DHT22;11947;50.810;4.394;2022-12-11T00:05:15;2.60;99.90
23540;DHT22;11947;50.810;4.394;2022-12-11T00:07:41;2.70;99.90
23540;DHT22;11947;50.810;4.394;2022-12-11T00:10:07;2.60;99.90
23540;DHT22;11947;50.810;4.394;2022-12-11T00:12:33;2.60;99.90
23540;DHT22;11947;50.810;4.394;2022-12-11T00:14:59;2.50;99.90
23540;DHT22;11947;50.810;4.394;2022-12-11T00:17:24;2.50;99.90
23540;DHT22;11947;50.810;4.394;2022-12-11T00:19:50;2.50;99.90
23540;DHT22;11947;50.810;4.394;2022-12-11T00:22:16;2.70;99.90
23540;DHT22;11947;50.810;4.394;2022-12-11T00:24:41;2.60;99.90
23540;DHT22;11947;50.810;4.394;2022-12-11T00:27:07;2.70;99.90
23540;DHT22;11947;50.810;4.394;2022-12-11T00:29:32;2.60;99.90
23540;DHT22;11947;50.810;4.394;2022-12-11T00:31:58;2.70;99.90
23540;DHT22;11947;50.810;4.394;2022-12-11T00:34:24;2.80;99.90
23540;DHT22;11947;50.810;4.394;2022-12-11T00:36:49;2.70;99.90
23540;DHT22;11947;50.810;4.394;2022-12-11T00:39:15;2.60;99.90
23540;DHT22;11947;50.810;4.394;2022-12-11T00:41:40;2.60;99.90
23540;DHT22;11947;50.810;4.394;2022-12-11T00:44:06;2.60;99.90
23540;DHT22;11947;50.810;4.394;2022-12-11T00:46:32;2.60;99.90
23540;DHT22;11947;50.810;4.394;2022-12-11T00:48:57;2.70;99.90
23540;DHT22;11947;50.810;4.394;2022-12-11T00:51:23;2.70;99.90
23540;DHT22;11947;50.810;4.394;2022-12-11T00:53:50;2.70;99.90
23540;DHT22;11947;50.810;4.394;2022-12-11T00:56:18;2.80;99.90
23540;DHT22;11947;50.810;4.394;2022-12-11T00:58:45;2.60;99.90
23540;DHT22;11947;50.810;4.394;2022-12-11T01:01:17;2.50;99.90
23540;DHT22;11947;50.810;4.394;2022-12-11T01:03:43;2.70;99.90
23540;DHT22;11947;50.810;4.394;2022-12-11T01:06:16;2.60;99.90
23540;DHT22;11947;50.810;4.394;2022-12-11T01:08:43;2.70;99.90
23540;DHT22;11947;50.810;4.394;2022-12-11T01:11:11;2.80;99.90
23540;DHT22;11947;50.810;4.394;2022-12-11T01:13:38;2.90;99.90
23540;DHT22;11947;50.810;4.394;2022-12-11T01:16:13;2.80;99.90
23540;DHT22;11947;50.810;4.394;2022-12-11T01:18:39;2.80;99.90
23540;DHT22;11947;50.810;4.394;2022-12-11T01:21:07;2.70;99.90
23540;DHT22;11947;50.810;4.394;2022-12-11T01:23:33;2.80;99.90
23540;DHT22;11947;50.810;4.394;2022-12-11T01:26:13;2.70;99.90
23540;DHT22;11947;50.810;4.394;2022-12-11T01:28:39;2.70;99.90
23540;DHT22;11947;50.810;4.394;2022-12-11T01:31:10;2.70;99.90
23540;DHT22;11947;50.810;4.394;2022-12-11T01:33:36;2.70;99.90
23540;DHT22;11947;50.810;4.394;2022-12-11T01:36:07;2.60;99.90
23540;DHT22;11947;50.810;4.394;2022-12-11T01:38:33;2.60;99.90
23540;DHT22;11947;50.810;4.394;2022-12-11T01:40:58;2.60;99.90
23540;DHT22;11947;50.810;4.394;2022-12-11T01:43:24;2.70;99.90
23540;DHT22;11947;50.810;4.394;2022-12-11T01:45:49;2.60;99.90
23540;DHT22;11947;50.810;4.394;2022-12-11T01:48:19;2.70;99.90
23540;DHT22;11947;50.810;4.394;2022-12-11T01:51:15;2.60;99.90
23540;DHT22;11947;50.810;4.394;2022-12-11T01:53:44;2.50;99.90
23540;DHT22;11947;50.810;4.394;2022-12-11T01:56:10;2.50;99.90
23540;DHT22;11947;50.810;4.394;2022-12-11T01:58:41;2.60;99.90
23540;DHT22;11947;50.810;4.394;2022-12-11T02:01:11;2.90;99.90
23540;DHT22;11947;50.810;4.394;2022-12-11T02:03:39;2.70;99.90
23540;DHT22;11947;50.810;4.394;2022-12-11T02:06:04;2.70;99.90
23540;DHT22;11947;50.810;4.394;2022-12-11T02:08:30;2.70;99.90
23540;DHT22;11947;50.810;4.394;2022-12-11T02:11:13;2.70;99.90
23540;DHT22;11947;50.810;4.394;2022-12-11T02:14:22;2.70;99.90
23540;DHT22;11947;50.810;4.394;2022-12-11T02:17:03;2.70;99.90
23540;DHT22;11947;50.810;4.394;2022-12-11T02:22:09;3.00;99.90
23540;DHT22;11947;50.810;4.394;2022-12-11T02:27:53;2.80;99.90
23540;DHT22;11947;50.810;4.394;2022-12-11T02:30:22;2.90;99.90
23540;DHT22;11947;50.810;4.394;2022-12-11T02:32:55;3.00;99.90
23540;DHT22;11947;50.810;4.394;2022-12-11T02:35:27;3.00;99.90
23540;DHT22;11947;50.810;4.394;2022-12-11T02:38:23;3.00;99.90
23540;DHT22;11947;50.810;4.394;2022-12-11T02:40:51;3.00;99.90
23540;DHT22;11947;50.810;4.394;2022-12-11T02:43:18;3.00;99.90
23540;DHT22;11947;50.810;4.394;2022-12-11T02:45:45;3.00;99.90
23540;DHT22;11947;50.810;4.394;2022-12-11T02:48:14;3.10;99.90
23540;DHT22;11947;50.810;4.394;2022-12-11T02:50:44;3.00;99.90
23540;DHT22;11947;50.810;4.394;2022-12-11T02:53:11;3.00;99.90
23540;DHT22;11947;50.810;4.394;2022-12-11T02:55:39;2.80;99.90
23540;DHT22;11947;50.810;4.394;2022-12-11T02:58:15;2.90;99.90
23540;DHT22;11947;50.810;4.394;2022-12-11T03:00:43;3.00;99.90
23540;DHT22;11947;50.810;4.394;2022-12-11T03:03:09;2.90;99.90
23540;DHT22;11947;50.810;4.394;2022-12-11T03:05:35;3.10;99.90
23540;DHT22;11947;50.810;4.394;2022-12-11T03:08:01;3.00;99.90
23540;DHT22;11947;50.810;4.394;2022-12-11T03:10:27;3.10;99.90
23540;DHT22;11947;50.810;4.394;2022-12-11T03:12:54;3.10;99.90
23540;DHT22;11947;50.810;4.394;2022-12-11T03:15:25;3.10;99.90
23540;DHT22;11947;50.810;4.394;2022-12-11T03:18:20;3.00;99.90
23540;DHT22;11947;50.810;4.394;2022-12-11T03:24:07;3.20;99.90
23540;DHT22;11947;50.810;4.394;2022-12-11T03:26:38;3.20;99.90
23540;DHT22;11947;50.810;4.394;2022-12-11T03:29:22;3.10;99.90
23540;DHT22;11947;50.810;4.394;2022-12-11T03:31:55;3.00;99.90
23540;DHT22;11947;50.810;4.394;2022-12-11T03:34:28;2.90;99.90
23540;DHT22;11947;50.810;4.394;2022-12-11T03:36:56;2.90;99.90
23540;DHT22;11947;50.810;4.394;2022-12-11T03:39:29;3.00;99.90
23540;DHT22;11947;50.810;4.394;2022-12-11T03:42:00;2.80;99.90
23540;DHT22;11947;50.810;4.394;2022-12-11T03:44:27;2.80;99.90
23540;DHT22;11947;50.810;4.394;2022-12-11T03:46:55;2.80;99.90
23540;DHT22;11947;50.810;4.394;2022-12-11T03:49:25;2.80;99.90
23540;DHT22;11947;50.810;4.394;2022-12-11T03:51:54;2.80;99.90
23540;DHT22;11947;50.810;4.394;2022-12-11T03:54:22;2.80;99.90
23540;DHT22;11947;50.810;4.394;2022-12-11T03:56:50;2.80;99.90
23540;DHT22;11947;50.810;4.394;2022-12-11T03:59:17;2.70;99.90
23540;DHT22;11947;50.810;4.394;2022-12-11T04:01:43;2.60;99.90
23540;DHT22;11947;50.810;4.394;2022-12-11T04:04:09;2.70;99.90
23540;DHT22;11947;50.810;4.394;2022-12-11T04:06:35;2.70;99.90
23540;DHT22;11947;50.810;4.394;2022-12-11T04:09:00;2.70;99.90
23540;DHT22;11947;50.810;4.394;2022-12-11T04:11:26;2.70;99.90
23540;DHT22;11947;50.810;4.394;2022-12-11T04:14:06;2.70;99.90
23540;DHT22;11947;50.810;4.394;2022-12-11T04:16:51;2.70;99.90
23540;DHT22;11947;50.810;4.394;2022-12-11T04:19:18;2.60;99.90
23540;DHT22;11947;50.810;4.394;2022-12-11T04:22:03;2.60;99.90
23540;DHT22;11947;50.810;4.394;2022-12-11T04:24:47;2.70;99.90
23540;DHT22;11947;50.810;4.394;2022-12-11T04:27:13;2.70;99.90
23540;DHT22;11947;50.810;4.394;2022-12-11T04:29:59;2.70;99.90
23540;DHT22;11947;50.810;4.394;2022-12-11T04:32:25;2.90;99.90
23540;DHT22;11947;50.810;4.394;2022-12-11T04:34:50;3.00;99.90
23540;DHT22;11947;50.810;4.394;2022-12-11T04:37:16;3.10;99.90
23540;DHT22;11947;50.810;4.394;2022-12-11T04:39:41;3.20;99.90
23540;DHT22;11947;50.810;4.394;2022-12-11T04:42:07;3.00;99.90
23540;DHT22;11947;50.810;4.394;2022-12-11T04:44:33;2.90;99.90
23540;DHT22;11947;50.810;4.394;2022-12-11T04:46:58;2.90;99.90
23540;DHT22;11947;50.810;4.394;2022-12-11T04:49:24;2.90;99.90
23540;DHT22;11947;50.810;4.394;2022-12-11T04:51:49;3.00;99.90
23540;DHT22;11947;50.810;4.394;2022-12-11T04:54:15;3.00;99.90
23540;DHT22;11947;50.810;4.394;2022-12-11T04:56:41;3.00;99.90
23540;DHT22;11947;50.810;4.394;2022-12-11T04:59:06;3.00;99.90
23540;DHT22;11947;50.810;4.394;2022-12-11T05:01:32;2.90;99.90
23540;DHT22;11947;50.810;4.394;2022-12-11T05:03:58;3.00;99.90
23540;DHT22;11947;50.810;4.394;2022-12-11T05:06:25;3.00;99.90
23540;DHT22;11947;50.810;4.394;2022-12-11T05:08:51;2.70;99.90
23540;DHT22;11947;50.810;4.394;2022-12-11T05:11:16;2.80;99.90
23540;DHT22;11947;50.810;4.394;2022-12-11T05:13:43;2.90;99.90
23540;DHT22;11947;50.810;4.394;2022-12-11T05:16:11;2.90;99.90
23540;DHT22;11947;50.810;4.394;2022-12-11T05:18:37;2.90;99.90
23540;DHT22;11947;50.810;4.394;2022-12-11T05:21:06;3.00;99.90
23540;DHT22;11947;50.810;4.394;2022-12-11T05:23:32;2.90;99.90
23540;DHT22;11947;50.810;4.394;2022-12-11T05:26:01;2.80;99.90
23540;DHT22;11947;50.810;4.394;2022-12-11T05:28:28;2.90;99.90
23540;DHT22;11947;50.810;4.394;2022-12-11T05:31:01;2.80;99.90
23540;DHT22;11947;50.810;4.394;2022-12-11T05:33:27;2.80;99.90
23540;DHT22;11947;50.810;4.394;2022-12-11T05:35:54;2.90;99.90
23540;DHT22;11947;50.810;4.394;2022-12-11T05:38:20;3.00;99.90
23540;DHT22;11947;50.810;4.394;2022-12-11T05:41:04;2.90;99.90
23540;DHT22;11947;50.810;4.394;2022-12-11T05:43:33;2.80;99.90
23540;DHT22;11947;50.810;4.394;2022-12-11T05:46:16;2.90;99.90
23540;DHT22;11947;50.810;4.394;2022-12-11T05:48:43;2.90;99.90
23540;DHT22;11947;50.810;4.394;2022-12-11T05:51:10;2.80;99.90
23540;DHT22;11947;50.810;4.394;2022-12-11T05:53:37;2.70;99.90
23540;DHT22;11947;50.810;4.394;2022-12-11T05:56:11;2.80;99.90
23540;DHT22;11947;50.810;4.394;2022-12-11T05:58:38;2.80;99.90
23540;DHT22;11947;50.810;4.394;2022-12-11T06:01:09;2.90;99.90
23540;DHT22;11947;50.810;4.394;2022-12-11T06:03:35;2.90;99.90
23540;DHT22;11947;50.810;4.394;2022-12-11T06:06:02;3.00;99.90
23540;DHT22;11947;50.810;4.394;2022-12-11T06:08:28;3.00;99.90
23540;DHT22;11947;50.810;4.394;2022-12-11T06:10:54;3.10;99.90
23540;DHT22;11947;50.810;4.394;2022-12-11T06:13:19;3.10;99.90
23540;DHT22;11947;50.810;4.394;2022-12-11T06:15:45;3.00;99.90
23540;DHT22;11947;50.810;4.394;2022-12-11T06:18:11;3.00;99.90
23540;DHT22;11947;50.810;4.394;2022-12-11T06:20:36;3.00;99.90
23540;DHT22;11947;50.810;4.394;2022-12-11T06:23:02;3.00;99.90
23540;DHT22;11947;50.810;4.394;2022-12-11T06:25:28;3.00;99.90
23540;DHT22;11947;50.810;4.394;2022-12-11T06:27:54;2.90;99.90
23540;DHT22;11947;50.810;4.394;2022-12-11T06:30:20;2.80;99.90
23540;DHT22;11947;50.810;4.394;2022-12-11T06:32:46;2.70;99.90
23540;DHT22;11947;50.810;4.394;2022-12-11T06:35:12;2.70;99.90
23540;DHT22;11947;50.810;4.394;2022-12-11T06:37:38;2.70;99.90
23540;DHT22;11947;50.810;4.394;2022-12-11T06:40:06;2.80;99.90
23540;DHT22;11947;50.810;4.394;2022-12-11T06:42:33;2.70;99.90
23540;DHT22;11947;50.810;4.394;2022-12-11T06:44:58;2.80;99.90
23540;DHT22;11947;50.810;4.394;2022-12-11T06:47:25;2.80;99.90
23540;DHT22;11947;50.810;4.394;2022-12-11T06:49:51;2.80;99.90
23540;DHT22;11947;50.810;4.394;2022-12-11T06:52:18;2.70;99.90
23540;DHT22;11947;50.810;4.394;2022-12-11T06:54:44;2.60;99.90
23540;DHT22;11947;50.810;4.394;2022-12-11T06:57:09;2.50;99.90
23540;DHT22;11947;50.810;4.394;2022-12-11T06:59:35;2.70;99.90
23540;DHT22;11947;50.810;4.394;2022-12-11T07:02:02;2.70;99.90
23540;DHT22;11947;50.810;4.394;2022-12-11T07:04:28;2.80;99.90
23540;DHT22;11947;50.810;4.394;2022-12-11T07:06:55;2.70;99.90
23540;DHT22;11947;50.810;4.394;2022-12-11T07:09:22;2.70;99.90
23540;DHT22;11947;50.810;4.394;2022-12-11T07:11:51;2.70;99.90
23540;DHT22;11947;50.810;4.394;2022-12-11T07:14:17;2.70;99.90
23540;DHT22;11947;50.810;4.394;2022-12-11T07:16:43;2.60;99.90
23540;DHT22;11947;50.810;4.394;2022-12-11T07:19:09;2.50;99.90
23540;DHT22;11947;50.810;4.394;2022-12-11T07:21:35;2.40;99.90
23540;DHT22;11947;50.810;4.394;2022-12-11T07:24:01;2.40;99.90
23540;DHT22;11947;50.810;4.394;2022-12-11T07:26:26;2.50;99.90
23540;DHT22;11947;50.810;4.394;2022-12-11T07:28:56;2.60;99.90
23540;DHT22;11947;50.810;4.394;2022-12-11T07:31:24;2.40;99.90
23540;DHT22;11947;50.810;4.394;2022-12-11T07:34:11;2.30;99.90
23540;DHT22;11947;50.810;4.394;2022-12-11T07:36:36;2.30;99.90
23540;DHT22;11947;50.810;4.394;2022-12-11T07:39:02;2.30;99.90
23540;DHT22;11947;50.810;4.394;2022-12-11T07:41:28;2.50;99.90
23540;DHT22;11947;50.810;4.394;2022-12-11T07:43:56;2.60;99.90
23540;DHT22;11947;50.810;4.394;2022-12-11T07:46:27;2.60;99.90
23540;DHT22;11947;50.810;4.394;2022-12-11T07:48:54;2.70;99.90
23540;DHT22;11947;50.810;4.394;2022-12-11T07:51:22;2.80;99.90
23540;DHT22;11947;50.810;4.394;2022-12-11T07:54:03;3.00;99.90
23540;DHT22;11947;50.810;4.394;2022-12-11T07:56:33;2.90;99.90
23540;DHT22;11947;50.810;4.394;2022-12-11T07:59:02;2.80;99.90
23540;DHT22;11947;50.810;4.394;2022-12-11T08:01:29;2.60;99.90
23540;DHT22;11947;50.810;4.394;2022-12-11T08:03:59;2.60;99.90
23540;DHT22;11947;50.810;4.394;2022-12-11T08:06:27;2.50;99.90
23540;DHT22;11947;50.810;4.394;2022-12-11T08:08:54;2.60;99.90
23540;DHT22;11947;50.810;4.394;2022-12-11T08:11:25;2.80;99.90
23540;DHT22;11947;50.810;4.394;2022-12-11T08:13:51;2.80;99.90
23540;DHT22;11947;50.810;4.394;2022-12-11T08:16:19;2.90;99.90
23540;DHT22;11947;50.810;4.394;2022-12-11T08:18:48;2.60;99.90
23540;DHT22;11947;50.810;4.394;2022-12-11T08:21:22;2.40;99.90
23540;DHT22;11947;50.810;4.394;2022-12-11T08:23:49;2.40;99.90
23540;DHT22;11947;50.810;4.394;2022-12-11T08:26:18;2.30;99.90
23540;DHT22;11947;50.810;4.394;2022-12-11T08:28:45;2.40;99.90
23540;DHT22;11947;50.810;4.394;2022-12-11T08:31:13;2.50;99.90
23540;DHT22;11947;50.810;4.394;2022-12-11T08:33:40;2.40;99.90
23540;DHT22;11947;50.810;4.394;2022-12-11T08:36:09;2.40;99.90
23540;DHT22;11947;50.810;4.394;2022-12-11T08:38:35;2.70;99.90
23540;DHT22;11947;50.810;4.394;2022-12-11T08:41:12;2.80;99.90
23540;DHT22;11947;50.810;4.394;2022-12-11T08:43:39;2.80;99.90
23540;DHT22;11947;50.810;4.394;2022-12-11T08:46:05;2.60;99.90
23540;DHT22;11947;50.810;4.394;2022-12-11T08:48:32;2.70;99.90
23540;DHT22;11947;50.810;4.394;2022-12-11T08:51:00;2.80;99.90
23540;DHT22;11947;50.810;4.394;2022-12-11T08:53:28;2.70;99.90
23540;DHT22;11947;50.810;4.394;2022-12-11T08:56:00;2.70;99.90
23540;DHT22;11947;50.810;4.394;2022-12-11T08:58:25;2.60;99.90
23540;DHT22;11947;50.810;4.394;2022-12-11T09:00:53;2.50;99.90
23540;DHT22;11947;50.810;4.394;2022-12-11T09:03:20;2.40;99.90
23540;DHT22;11947;50.810;4.394;2022-12-11T09:05:45;2.40;99.90
23540;DHT22;11947;50.810;4.394;2022-12-11T09:08:11;2.40;99.90
23540;DHT22;11947;50.810;4.394;2022-12-11T09:10:37;2.30;99.90
23540;DHT22;11947;50.810;4.394;2022-12-11T09:13:02;2.30;99.90
23540;DHT22;11947;50.810;4.394;2022-12-11T09:15:28;2.30;99.90
23540;DHT22;11947;50.810;4.394;2022-12-11T09:17:54;2.50;99.90
23540;DHT22;11947;50.810;4.394;2022-12-11T09:20:21;2.50;99.90
23540;DHT22;11947;50.810;4.394;2022-12-11T09:22:48;2.50;99.90
23540;DHT22;11947;50.810;4.394;2022-12-11T09:25:13;2.60;99.90
23540;DHT22;11947;50.810;4.394;2022-12-11T09:27:39;2.80;99.90
23540;DHT22;11947;50.810;4.394;2022-12-11T09:30:05;2.90;99.90
23540;DHT22;11947;50.810;4.394;2022-12-11T09:32:31;3.10;99.90
23540;DHT22;11947;50.810;4.394;2022-12-11T09:34:56;3.10;99.90
23540;DHT22;11947;50.810;4.394;2022-12-11T09:37:22;3.20;99.90
23540;DHT22;11947;50.810;4.394;2022-12-11T09:39:47;3.20;99.90
23540;DHT22;11947;50.810;4.394;2022-12-11T09:42:20;2.90;99.90
23540;DHT22;11947;50.810;4.394;2022-12-11T09:44:55;2.90;99.90
23540;DHT22;11947;50.810;4.394;2022-12-11T09:47:35;2.60;99.90
23540;DHT22;11947;50.810;4.394;2022-12-11T09:50:22;2.50;99.90
23540;DHT22;11947;50.810;4.394;2022-12-11T09:56:38;2.70;99.90
23540;DHT22;11947;50.810;4.394;2022-12-11T09:58:56;2.50;99.90
23540;DHT22;11947;50.810;4.394;2022-12-11T10:01:53;2.40;99.90
23540;DHT22;11947;50.810;4.394;2022-12-11T10:07:15;2.90;99.90
23540;DHT22;11947;50.810;4.394;2022-12-11T10:09:50;3.10;99.90
23540;DHT22;11947;50.810;4.394;2022-12-11T10:17:41;2.70;99.90
23540;DHT22;11947;50.810;4.394;2022-12-11T10:22:37;3.20;99.90
23540;DHT22;11947;50.810;4.394;2022-12-11T10:25:13;3.10;99.90
23540;DHT22;11947;50.810;4.394;2022-12-11T10:27:43;3.10;99.90
23540;DHT22;11947;50.810;4.394;2022-12-11T10:30:21;2.90;99.90
23540;DHT22;11947;50.810;4.394;2022-12-11T10:35:54;3.00;99.90
23540;DHT22;11947;50.810;4.394;2022-12-11T10:38:27;2.90;99.90
23540;DHT22;11947;50.810;4.394;2022-12-11T10:46:25;3.00;99.90
23540;DHT22;11947;50.810;4.394;2022-12-11T10:48:53;3.10;99.90
23540;DHT22;11947;50.810;4.394;2022-12-11T10:51:46;3.00;99.90
23540;DHT22;11947;50.810;4.394;2022-12-11T10:54:34;3.10;99.90
23540;DHT22;11947;50.810;4.394;2022-12-11T10:57:03;3.20;99.90
23540;DHT22;11947;50.810;4.394;2022-12-11T11:01:58;3.60;99.90
23540;DHT22;11947;50.810;4.394;2022-12-11T11:04:30;3.70;99.90
23540;DHT22;11947;50.810;4.394;2022-12-11T11:07:10;3.60;99.90
23540;DHT22;11947;50.810;4.394;2022-12-11T11:09:37;3.50;99.90
23540;DHT22;11947;50.810;4.394;2022-12-11T11:12:04;3.70;99.90
23540;DHT22;11947;50.810;4.394;2022-12-11T11:14:41;3.70;99.90
23540;DHT22;11947;50.810;4.394;2022-12-11T11:17:14;3.80;99.90
23540;DHT22;11947;50.810;4.394;2022-12-11T11:19:45;3.90;99.90
23540;DHT22;11947;50.810;4.394;2022-12-11T11:22:17;3.80;99.90
23540;DHT22;11947;50.810;4.394;2022-12-11T11:24:53;3.70;99.90
23540;DHT22;11947;50.810;4.394;2022-12-11T11:27:42;3.60;99.90
23540;DHT22;11947;50.810;4.394;2022-12-11T11:30:38;3.80;99.90
23540;DHT22;11947;50.810;4.394;2022-12-11T11:33:19;3.90;99.90
23540;DHT22;11947;50.810;4.394;2022-12-11T11:35:58;3.90;99.90
23540;DHT22;11947;50.810;4.394;2022-12-11T11:41:24;4.30;99.90
23540;DHT22;11947;50.810;4.394;2022-12-11T11:44:06;4.60;99.90
23540;DHT22;11947;50.810;4.394;2022-12-11T11:46:45;5.00;99.90
23540;DHT22;11947;50.810;4.394;2022-12-11T11:54:57;4.90;99.90
23540;DHT22;11947;50.810;4.394;2022-12-11T12:00:24;5.70;99.90
23540;DHT22;11947;50.810;4.394;2022-12-11T12:02:54;5.80;99.90
23540;DHT22;11947;50.810;4.394;2022-12-11T12:05:36;5.90;99.90
23540;DHT22;11947;50.810;4.394;2022-12-11T12:08:22;5.70;99.90
23540;DHT22;11947;50.810;4.394;2022-12-11T12:14:00;5.00;99.90
23540;DHT22;11947;50.810;4.394;2022-12-11T12:16:48;4.80;99.90
23540;DHT22;11947;50.810;4.394;2022-12-11T12:19:42;4.90;99.90
23540;DHT22;11947;50.810;4.394;2022-12-11T12:22:29;4.80;99.90
23540;DHT22;11947;50.810;4.394;2022-12-11T12:39:02;4.20;99.90
23540;DHT22;11947;50.810;4.394;2022-12-11T12:44:14;4.00;99.90
23540;DHT22;11947;50.810;4.394;2022-12-11T12:49:45;3.90;99.90
23540;DHT22;11947;50.810;4.394;2022-12-11T12:52:34;3.90;99.90
23540;DHT22;11947;50.810;4.394;2022-12-11T12:55:25;3.70;99.90
23540;DHT22;11947;50.810;4.394;2022-12-11T12:58:00;3.60;99.90
23540;DHT22;11947;50.810;4.394;2022-12-11T13:03:13;3.60;99.90
23540;DHT22;11947;50.810;4.394;2022-12-11T13:05:42;3.40;99.90
23540;DHT22;11947;50.810;4.394;2022-12-11T13:08:10;3.20;99.90
23540;DHT22;11947;50.810;4.394;2022-12-11T13:10:40;3.40;99.90
23540;DHT22;11947;50.810;4.394;2022-12-11T13:13:30;3.20;99.90
23540;DHT22;11947;50.810;4.394;2022-12-11T13:16:06;3.40;99.90
23540;DHT22;11947;50.810;4.394;2022-12-11T13:18:34;3.40;99.90
23540;DHT22;11947;50.810;4.394;2022-12-11T13:23:47;3.30;99.90
23540;DHT22;11947;50.810;4.394;2022-12-11T13:26:13;3.30;99.90
23540;DHT22;11947;50.810;4.394;2022-12-11T13:33:47;3.60;99.90
23540;DHT22;11947;50.810;4.394;2022-12-11T13:36:21;3.60;99.90
23540;DHT22;11947;50.810;4.394;2022-12-11T13:39:01;3.50;99.90
23540;DHT22;11947;50.810;4.394;2022-12-11T13:41:29;3.50;99.90
23540;DHT22;11947;50.810;4.394;2022-12-11T13:43:57;3.30;99.90
23540;DHT22;11947;50.810;4.394;2022-12-11T13:46:27;3.20;99.90
23540;DHT22;11947;50.810;4.394;2022-12-11T13:48:58;3.40;99.90
23540;DHT22;11947;50.810;4.394;2022-12-11T13:51:27;3.20;99.90
23540;DHT22;11947;50.810;4.394;2022-12-11T13:54:15;3.10;99.90
23540;DHT22;11947;50.810;4.394;2022-12-11T13:59:40;2.90;99.90
23540;DHT22;11947;50.810;4.394;2022-12-11T14:02:20;3.00;99.90
23540;DHT22;11947;50.810;4.394;2022-12-11T14:04:48;3.10;99.90
23540;DHT22;11947;50.810;4.394;2022-12-11T14:07:22;3.20;99.90
23540;DHT22;11947;50.810;4.394;2022-12-11T14:09:49;3.20;99.90
23540;DHT22;11947;50.810;4.394;2022-12-11T14:12:18;3.10;99.90
23540;DHT22;11947;50.810;4.394;2022-12-11T14:14:52;3.00;99.90
23540;DHT22;11947;50.810;4.394;2022-12-11T14:17:28;3.10;99.90
23540;DHT22;11947;50.810;4.394;2022-12-11T14:19:57;3.20;99.90
23540;DHT22;11947;50.810;4.394;2022-12-11T14:22:25;3.10;99.90
23540;DHT22;11947;50.810;4.394;2022-12-11T14:25:00;3.00;99.90
23540;DHT22;11947;50.810;4.394;2022-12-11T14:27:28;3.00;99.90
23540;DHT22;11947;50.810;4.394;2022-12-11T14:29:54;2.90;99.90
23540;DHT22;11947;50.810;4.394;2022-12-11T14:32:34;2.90;99.90
23540;DHT22;11947;50.810;4.394;2022-12-11T14:35:22;2.80;99.90
23540;DHT22;11947;50.810;4.394;2022-12-11T14:37:48;2.70;99.90
23540;DHT22;11947;50.810;4.394;2022-12-11T14:40:18;2.60;99.90
23540;DHT22;11947;50.810;4.394;2022-12-11T14:42:50;2.60;99.90
23540;DHT22;11947;50.810;4.394;2022-12-11T14:45:42;2.70;99.90
23540;DHT22;11947;50.810;4.394;2022-12-11T14:48:31;2.80;99.90
23540;DHT22;11947;50.810;4.394;2022-12-11T14:51:04;3.00;99.90
23540;DHT22;11947;50.810;4.394;2022-12-11T14:53:51;3.10;99.90
23540;DHT22;11947;50.810;4.394;2022-12-11T14:56:24;3.20;99.90
23540;DHT22;11947;50.810;4.394;2022-12-11T14:59:02;3.30;99.90
23540;DHT22;11947;50.810;4.394;2022-12-11T15:01:31;3.50;99.90
23540;DHT22;11947;50.810;4.394;2022-12-11T15:04:22;3.70;99.90
23540;DHT22;11947;50.810;4.394;2022-12-11T15:06:51;3.50;99.90
23540;DHT22;11947;50.810;4.394;2022-12-11T15:11:56;3.50;99.90
23540;DHT22;11947;50.810;4.394;2022-12-11T15:14:23;3.50;99.90
23540;DHT22;11947;50.810;4.394;2022-12-11T15:16:50;3.50;99.90
23540;DHT22;11947;50.810;4.394;2022-12-11T15:19:30;3.40;99.90
23540;DHT22;11947;50.810;4.394;2022-12-11T15:22:05;3.50;99.90
23540;DHT22;11947;50.810;4.394;2022-12-11T15:24:39;3.50;99.90
23540;DHT22;11947;50.810;4.394;2022-12-11T15:27:34;3.50;99.90
23540;DHT22;11947;50.810;4.394;2022-12-11T15:30:26;3.50;99.90
23540;DHT22;11947;50.810;4.394;2022-12-11T15:35:38;3.40;99.90
23540;DHT22;11947;50.810;4.394;2022-12-11T15:38:04;3.40;99.90
23540;DHT22;11947;50.810;4.394;2022-12-11T15:40:31;3.50;99.90
23540;DHT22;11947;50.810;4.394;2022-12-11T15:42:57;3.40;99.90
23540;DHT22;11947;50.810;4.394;2022-12-11T15:45:26;3.50;99.90
23540;DHT22;11947;50.810;4.394;2022-12-11T15:47:55;3.40;99.90
23540;DHT22;11947;50.810;4.394;2022-12-11T15:50:26;3.40;99.90
23540;DHT22;11947;50.810;4.394;2022-12-11T15:52:54;3.40;99.90
23540;DHT22;11947;50.810;4.394;2022-12-11T15:55:21;3.40;99.90
23540;DHT22;11947;50.810;4.394;2022-12-11T15:57:56;3.30;99.90
23540;DHT22;11947;50.810;4.394;2022-12-11T16:00:23;3.40;99.90
23540;DHT22;11947;50.810;4.394;2022-12-11T16:02:49;3.40;99.90
23540;DHT22;11947;50.810;4.394;2022-12-11T16:05:16;3.40;99.90
23540;DHT22;11947;50.810;4.394;2022-12-11T16:07:41;3.40;99.90
23540;DHT22;11947;50.810;4.394;2022-12-11T16:10:12;3.30;99.90
23540;DHT22;11947;50.810;4.394;2022-12-11T16:12:38;3.40;99.90
23540;DHT22;11947;50.810;4.394;2022-12-11T16:15:04;3.40;99.90
23540;DHT22;11947;50.810;4.394;2022-12-11T16:17:30;3.40;99.90
23540;DHT22;11947;50.810;4.394;2022-12-11T16:19:56;3.40;99.90
23540;DHT22;11947;50.810;4.394;2022-12-11T16:22:21;3.40;99.90
23540;DHT22;11947;50.810;4.394;2022-12-11T16:24:47;3.40;99.90
23540;DHT22;11947;50.810;4.394;2022-12-11T16:27:16;3.40;99.90
23540;DHT22;11947;50.810;4.394;2022-12-11T16:29:42;3.30;99.90
23540;DHT22;11947;50.810;4.394;2022-12-11T16:32:08;3.30;99.90
23540;DHT22;11947;50.810;4.394;2022-12-11T16:34:35;3.10;99.90
23540;DHT22;11947;50.810;4.394;2022-12-11T16:37:02;3.40;99.90
23540;DHT22;11947;50.810;4.394;2022-12-11T16:39:28;3.40;99.90
23540;DHT22;11947;50.810;4.394;2022-12-11T16:41:53;3.30;99.90
23540;DHT22;11947;50.810;4.394;2022-12-11T16:44:22;3.20;99.90
23540;DHT22;11947;50.810;4.394;2022-12-11T16:46:47;3.10;99.90
23540;DHT22;11947;50.810;4.394;2022-12-11T16:49:13;3.10;99.90
23540;DHT22;11947;50.810;4.394;2022-12-11T16:51:39;3.10;99.90
23540;DHT22;11947;50.810;4.394;2022-12-11T16:54:05;3.10;99.90
23540;DHT22;11947;50.810;4.394;2022-12-11T16:56:31;3.10;99.90
23540;DHT22;11947;50.810;4.394;2022-12-11T16:58:57;2.90;99.90
23540;DHT22;11947;50.810;4.394;2022-12-11T17:01:22;2.90;99.90
23540;DHT22;11947;50.810;4.394;2022-12-11T17:03:48;2.80;99.90
23540;DHT22;11947;50.810;4.394;2022-12-11T17:06:15;2.80;99.90
23540;DHT22;11947;50.810;4.394;2022-12-11T17:08:42;2.70;99.90
23540;DHT22;11947;50.810;4.394;2022-12-11T17:11:13;2.50;99.90
23540;DHT22;11947;50.810;4.394;2022-12-11T17:13:40;2.70;99.90
23540;DHT22;11947;50.810;4.394;2022-12-11T17:16:07;2.50;99.90
23540;DHT22;11947;50.810;4.394;2022-12-11T17:18:33;2.50;99.90
23540;DHT22;11947;50.810;4.394;2022-12-11T17:21:03;2.40;99.90
23540;DHT22;11947;50.810;4.394;2022-12-11T17:23:29;2.40;99.90
23540;DHT22;11947;50.810;4.394;2022-12-11T17:25:55;2.30;99.90
23540;DHT22;11947;50.810;4.394;2022-12-11T17:28:20;2.30;99.90
23540;DHT22;11947;50.810;4.394;2022-12-11T17:30:46;2.20;99.90